TAF KIAH
AMD KIAH 080250Z 0803/0906 VRB04KT P6SM OVC025 FM081000 VRB03KT 5SM BR OVC008 FM081500 VRB05KT P6SM BKN020 FM082000 18006KT P6SM FEW035 FM090300 14007KT P6SM BKN025=
METAR KIAH
KIAH 080253Z 11006KT 10SM BKN022 OVC027 16/12 A2999 RMK AO2 SLP155 T01610122 51014 ? ?
KIAH 080153Z 11006KT 10SM FEW022 OVC027 16/12 A2999 RMK AO2 SLP154 T01610117 ? ?
KIAH 080053Z 12007KT 10SM OVC033 16/12 A2997 RMK AO2 SLP149 BINOVC T01610117 ? ?
KIAH 072353Z 09008KT 10SM OVC031 16/12 A2995 RMK AO2 SLP141 T01610117 10183 20150 56006 ? ?
KIAH 072253Z 09007KT 10SM BKN036 17/11 A2995 RMK AO2 SLP142 T01670111 ? ?
WC KIAH
WS KIAH
WV KIAH